Time;durP1;ratioP1;P1;durP2;ratioP2;P2;SDS_P1;SDS_P2;PMS_P1;PMS_P2;Temp;Humidity;BMP_temperature;BMP_pressure;BME280_temperature;BME280_humidity;BME280_pressure;Samples;Min_cycle;Max_cycle;Signal;HPM_P1;HPM_P2
2021/10/18 00:01:15;;;;;;;130.00;33.10;;;;;;;10.24;100.00;96836.03;5039654;28;20209;-72
2021/10/18 00:03:41;;;;;;;136.23;33.83;;;;;;;10.19;100.00;96837.50;5039443;28;20212;-72
2021/10/18 00:06:08;;;;;;;131.20;33.47;;;;;;;10.03;100.00;96838.28;5039034;28;20221;-72
2021/10/18 00:08:34;;;;;;;135.10;35.10;;;;;;;10.09;100.00;96834.97;5038895;28;20197;-72
2021/10/18 00:11:01;;;;;;;122.87;32.60;;;;;;;10.08;100.00;96837.78;5039627;28;20204;-72
2021/10/18 00:13:27;;;;;;;120.07;31.53;;;;;;;9.99;100.00;96844.00;5039571;28;20213;-72
2021/10/18 00:15:55;;;;;;;133.47;33.10;;;;;;;10.30;100.00;96851.19;5038289;28;20866;-72
2021/10/18 00:18:22;;;;;;;138.07;33.10;;;;;;;9.99;100.00;96842.22;5036521;28;20201;-72
2021/10/18 00:20:48;;;;;;;131.23;31.67;;;;;;;10.13;100.00;96838.97;5039447;28;20208;-72
2021/10/18 00:23:15;;;;;;;125.33;32.23;;;;;;;10.21;100.00;96835.50;5039132;28;20228;-72
2021/10/18 00:25:41;;;;;;;129.53;32.50;;;;;;;10.29;100.00;96828.47;5038532;28;20343;-72
2021/10/18 00:28:08;;;;;;;132.50;32.07;;;;;;;10.21;100.00;96836.34;5039446;28;20203;-72
2021/10/18 00:30:34;;;;;;;125.43;30.83;;;;;;;10.26;100.00;96827.94;5038868;28;20205;-72
2021/10/18 00:33:02;;;;;;;142.33;34.27;;;;;;;10.31;100.00;96829.16;5039461;28;20201;-72
2021/10/18 00:35:29;;;;;;;129.97;33.57;;;;;;;10.27;100.00;96824.34;5038104;28;20235;-72
2021/10/18 00:37:55;;;;;;;124.10;31.97;;;;;;;10.42;100.00;96823.56;5038465;28;20650;-72
2021/10/18 00:40:22;;;;;;;131.43;32.80;;;;;;;10.54;100.00;96817.81;5039026;28;20201;-72
2021/10/18 00:42:50;;;;;;;132.27;32.67;;;;;;;10.54;100.00;96828.34;5038845;28;20221;-72
2021/10/18 00:45:18;;;;;;;143.13;32.90;;;;;;;10.47;100.00;96819.44;5038049;28;20252;-72
2021/10/18 00:47:44;;;;;;;139.47;33.47;;;;;;;10.40;100.00;96820.28;5037945;28;20204;-72
2021/10/18 00:50:13;;;;;;;127.30;32.10;;;;;;;10.64;100.00;96820.28;5038821;28;20205;-72
2021/10/18 00:52:41;;;;;;;110.87;30.50;;;;;;;10.24;100.00;96820.22;5038662;28;20197;-72
2021/10/18 00:55:08;;;;;;;117.20;28.20;;;;;;;10.09;100.00;96819.19;5037935;28;20336;-72
2021/10/18 00:57:35;;;;;;;126.80;31.20;;;;;;;10.15;100.00;96815.91;5037669;28;20208;-72
2021/10/18 01:00:04;;;;;;;118.50;31.57;;;;;;;10.41;100.00;96824.53;5038947;28;20193;-72
2021/10/18 01:02:30;;;;;;;127.50;32.10;;;;;;;10.23;100.00;96817.75;5038654;28;20599;-72
2021/10/18 01:04:58;;;;;;;138.03;34.67;;;;;;;10.53;100.00;96821.44;5038670;28;20221;-72
2021/10/18 01:07:26;;;;;;;127.57;31.77;;;;;;;10.43;100.00;96819.94;5037141;28;20205;-72
2021/10/18 01:09:53;;;;;;;140.33;33.87;;;;;;;10.29;100.00;96828.47;5037978;28;20204;-72
2021/10/18 01:12:19;;;;;;;140.80;32.30;;;;;;;10.31;100.00;96836.19;5038498;28;20193;-72
2021/10/18 01:14:46;;;;;;;128.90;31.53;;;;;;;10.14;100.00;96842.41;5038884;28;20226;-72
2021/10/18 01:17:13;;;;;;;131.30;32.80;;;;;;;10.13;100.00;96836.34;5036954;28;20205;-72
2021/10/18 01:19:39;;;;;;;114.90;29.37;;;;;;;9.76;100.00;96838.44;5035046;28;20200;-72
2021/10/18 01:22:07;;;;;;;131.30;31.53;;;;;;;10.21;100.00;96841.63;5037822;28;20595;-72
2021/10/18 01:24:36;;;;;;;103.80;25.73;;;;;;;9.98;100.00;96843.19;5037737;28;20201;-72
2021/10/18 01:27:02;;;;;;;124.50;30.83;;;;;;;10.09;100.00;96849.97;5036925;28;20577;-72
2021/10/18 01:29:31;;;;;;;120.13;30.07;;;;;;;10.14;100.00;96845.06;5037717;28;20670;-72
2021/10/18 01:31:57;;;;;;;138.23;32.07;;;;;;;9.95;100.00;96851.38;5037857;28;20216;-72
2021/10/18 01:34:24;;;;;;;130.87;30.60;;;;;;;9.88;100.00;96850.34;5037627;28;21108;-72
2021/10/18 01:36:50;;;;;;;64.17;18.53;;;;;;;9.61;100.00;96848.88;5036888;28;20197;-72
2021/10/18 01:39:18;;;;;;;100.60;25.57;;;;;;;9.82;100.00;96844.88;5037532;28;20193;-72
2021/10/18 01:41:45;;;;;;;104.80;27.47;;;;;;;9.85;100.00;96850.66;5037266;28;20212;-72
2021/10/18 01:44:11;;;;;;;117.97;28.70;;;;;;;9.97;100.00;96851.25;5037875;28;20201;-72
2021/10/18 01:46:38;;;;;;;108.53;28.07;;;;;;;9.78;100.00;96854.09;5037023;28;20231;-72
2021/10/18 01:49:04;;;;;;;96.53;28.17;;;;;;;9.83;100.00;96857.06;5037634;28;20205;-72
2021/10/18 01:51:31;;;;;;;115.37;30.37;;;;;;;9.66;100.00;96859.75;5036982;28;20669;-72
2021/10/18 01:53:57;;;;;;;107.13;29.63;;;;;;;9.64;100.00;96859.13;5037188;28;20193;-72
2021/10/18 01:56:25;;;;;;;99.37;28.33;;;;;;;9.99;100.00;96863.28;5036711;28;20217;-72
2021/10/18 01:58:51;;;;;;;103.83;27.67;;;;;;;9.85;100.00;96863.00;5037175;28;20216;-72
2021/10/18 02:01:18;;;;;;;114.90;30.63;;;;;;;9.78;100.00;96865.41;5037243;28;20201;-72
2021/10/18 02:03:44;;;;;;;93.13;27.27;;;;;;;9.52;100.00;96862.97;5037441;28;20220;-72
2021/10/18 02:06:12;;;;;;;93.00;26.33;;;;;;;9.59;100.00;96856.94;5036810;28;20696;-72
2021/10/18 02:08:39;;;;;;;91.17;28.03;;;;;;;9.97;100.00;96859.94;5036763;28;20216;-72
2021/10/18 02:11:06;;;;;;;110.23;30.27;;;;;;;10.02;100.00;96860.31;5033417;28;20197;-72
2021/10/18 02:13:34;;;;;;;117.00;32.57;;;;;;;10.32;100.00;96847.41;5037472;28;20208;-72
2021/10/18 02:16:01;;;;;;;99.83;30.57;;;;;;;9.92;100.00;96846.41;5035921;28;20217;-72
2021/10/18 02:18:27;;;;;;;93.73;28.20;;;;;;;9.91;100.00;96846.56;5034625;28;20734;-72
2021/10/18 02:20:59;;;;;;;96.27;25.67;;;;;;;9.71;100.00;96843.34;5037505;28;20696;-72
2021/10/18 02:23:26;;;;;;;91.70;26.30;;;;;;;9.80;100.00;96837.16;5037065;28;20231;-72
2021/10/18 02:25:53;;;;;;;110.37;29.07;;;;;;;9.70;100.00;96833.81;5036189;28;20275;-72
2021/10/18 02:28:19;;;;;;;100.47;28.07;;;;;;;9.86;100.00;96831.25;5036803;28;21223;-72
2021/10/18 02:30:47;;;;;;;100.70;27.13;;;;;;;10.05;100.00;96835.47;5036929;28;20205;-72
2021/10/18 02:33:14;;;;;;;95.53;27.37;;;;;;;9.83;100.00;96836.81;5037073;28;20208;-72
2021/10/18 02:35:40;;;;;;;97.87;27.00;;;;;;;10.06;100.00;96832.66;5035786;28;20225;-72
2021/10/18 02:38:08;;;;;;;94.80;23.80;;;;;;;9.57;100.00;96831.75;5036868;28;20251;-72
2021/10/18 02:40:34;;;;;;;92.77;25.87;;;;;;;9.51;100.00;96830.59;5037153;28;20213;-72
2021/10/18 02:43:01;;;;;;;83.87;23.33;;;;;;;9.41;100.00;96840.38;5036594;28;20748;-72
2021/10/18 02:45:27;;;;;;;100.43;26.27;;;;;;;9.64;100.00;96845.97;5036545;28;20315;-72
2021/10/18 02:47:55;;;;;;;92.67;26.23;;;;;;;9.88;100.00;96847.72;5036715;28;20201;-72
2021/10/18 02:50:22;;;;;;;110.43;28.00;;;;;;;9.53;100.00;96847.03;5036692;28;20205;-72
2021/10/18 02:52:48;;;;;;;103.83;27.53;;;;;;;9.47;100.00;96852.09;5036650;28;20668;-72
2021/10/18 02:55:15;;;;;;;101.73;26.73;;;;;;;9.61;100.00;96846.25;5036583;28;20231;-72
2021/10/18 02:57:41;;;;;;;97.10;25.40;;;;;;;9.64;100.00;96853.84;5035739;28;20224;-72
2021/10/18 03:00:09;;;;;;;97.07;26.47;;;;;;;9.60;100.00;96855.97;5036998;28;20201;-72
2021/10/18 03:02:35;;;;;;;99.13;25.93;;;;;;;9.63;100.00;96858.28;5036378;28;20225;-72
2021/10/18 03:05:04;;;;;;;85.43;22.73;;;;;;;9.86;100.00;96862.84;5035786;28;20228;-72
2021/10/18 03:07:30;;;;;;;91.40;24.60;;;;;;;9.69;100.00;96855.84;5035639;28;20201;-71
2021/10/18 03:09:57;;;;;;;99.03;25.50;;;;;;;9.67;100.00;96861.41;5036793;28;20197;-71
2021/10/18 03:12:23;;;;;;;100.50;25.10;;;;;;;9.79;100.00;96861.81;5035979;28;20198;-71
2021/10/18 03:14:50;;;;;;;101.23;25.77;;;;;;;9.80;100.00;96858.22;5036566;28;20220;-71
2021/10/18 03:17:16;;;;;;;97.77;25.83;;;;;;;9.76;100.00;96867.41;5035882;28;20201;-71
2021/10/18 03:19:43;;;;;;;94.97;23.07;;;;;;;9.80;100.00;96855.56;5033124;28;20197;-71
2021/10/18 03:22:11;;;;;;;98.33;25.17;;;;;;;10.12;100.00;96857.53;5036598;28;20201;-71
2021/10/18 03:24:37;;;;;;;90.67;24.73;;;;;;;9.46;100.00;96867.06;5036504;28;20225;-71
2021/10/18 03:27:04;;;;;;;90.47;25.17;;;;;;;9.67;100.00;96869.31;5035034;28;20696;-71
2021/10/18 03:29:30;;;;;;;85.37;23.60;;;;;;;9.63;100.00;96878.50;5036037;28;20202;-71
2021/10/18 03:31:57;;;;;;;101.30;25.60;;;;;;;9.53;100.00;96885.69;5036992;28;20216;-71
2021/10/18 03:34:23;;;;;;;82.40;21.60;;;;;;;9.36;100.00;96886.56;5036116;28;20200;-71
2021/10/18 03:36:50;;;;;;;89.63;24.40;;;;;;;9.13;100.00;96894.09;5035529;28;20216;-71
2021/10/18 03:39:18;;;;;;;84.40;23.33;;;;;;;9.54;100.00;96895.22;5037754;28;20213;-71
2021/10/18 03:41:44;;;;;;;78.57;22.83;;;;;;;9.35;100.00;96890.16;5040402;28;20204;-71
2021/10/18 03:44:11;;;;;;;84.93;23.50;;;;;;;9.39;100.00;96884.41;5039364;28;20228;-71
2021/10/18 03:46:37;;;;;;;87.20;23.60;;;;;;;9.46;100.00;96889.91;5038666;28;20221;-71
2021/10/18 03:49:04;;;;;;;74.63;22.60;;;;;;;9.58;100.00;96888.66;5040014;28;20917;-71
2021/10/18 03:51:31;;;;;;;81.80;22.47;;;;;;;9.62;100.00;96898.72;5039865;28;20197;-71
2021/10/18 03:53:57;;;;;;;77.77;22.37;;;;;;;9.65;100.00;96898.44;5039511;28;21043;-71
2021/10/18 03:56:25;;;;;;;88.43;24.00;;;;;;;10.02;100.00;96905.06;5038880;28;20232;-71
2021/10/18 03:58:52;;;;;;;73.50;23.03;;;;;;;9.77;99.38;96902.44;5039207;28;21010;-71
2021/10/18 04:01:18;;;;;;;73.03;21.90;;;;;;;9.49;100.00;96908.81;5039807;28;20201;-71
2021/10/18 04:03:45;;;;;;;83.43;23.17;;;;;;;9.65;99.43;96905.47;5039437;28;21080;-71
2021/10/18 04:06:11;;;;;;;84.80;23.57;;;;;;;9.87;98.78;96911.84;5038400;28;20216;-71
2021/10/18 04:08:38;;;;;;;73.87;21.33;;;;;;;9.92;98.45;96914.03;5038680;28;20958;-71
2021/10/18 04:11:04;;;;;;;76.40;22.37;;;;;;;9.91;98.37;96917.66;5039484;28;20205;-71
2021/10/18 04:13:33;;;;;;;72.27;21.90;;;;;;;9.78;99.15;96928.59;5039373;28;20198;-71
2021/10/18 04:15:59;;;;;;;77.13;23.27;;;;;;;9.50;99.86;96925.47;5038756;28;20279;-71
2021/10/18 04:18:26;;;;;;;83.67;22.70;;;;;;;9.45;99.79;96935.59;5035503;28;20201;-71
2021/10/18 04:20:53;;;;;;;76.37;23.13;;;;;;;9.69;99.43;96933.97;5039347;28;20193;-71
2021/10/18 04:23:19;;;;;;;84.60;23.70;;;;;;;9.56;99.51;96930.06;5038751;28;20224;-71
2021/10/18 04:25:46;;;;;;;78.77;23.57;;;;;;;9.62;99.30;96937.38;5038263;28;20225;-71
2021/10/18 04:28:12;;;;;;;73.37;22.20;;;;;;;9.76;98.96;96935.00;5039385;28;20202;-71
2021/10/18 04:30:40;;;;;;;76.10;22.00;;;;;;;10.15;98.35;96926.53;5038796;28;20206;-71
2021/10/18 04:33:07;;;;;;;93.43;28.07;;;;;;;9.95;98.21;96940.88;5038630;28;20201;-71
2021/10/18 04:35:33;;;;;;;90.73;26.73;;;;;;;9.45;100.00;96946.13;5037921;28;20229;-71
2021/10/18 04:38:00;;;;;;;91.37;24.97;;;;;;;9.69;99.07;96945.31;5038712;28;20204;-71
2021/10/18 04:40:26;;;;;;;87.47;24.90;;;;;;;9.70;99.20;96938.25;5038594;28;20581;-71
2021/10/18 04:42:53;;;;;;;78.97;23.80;;;;;;;9.73;98.81;96941.38;5038825;28;20224;-71
2021/10/18 04:45:19;;;;;;;80.43;23.83;;;;;;;9.79;98.87;96946.03;5038805;28;20225;-71
2021/10/18 04:47:50;;;;;;;86.90;25.37;;;;;;;10.12;98.77;96945.28;5037937;28;20209;-71
2021/10/18 04:50:17;;;;;;;74.87;23.43;;;;;;;10.01;97.97;96945.53;5037772;28;20328;-71
2021/10/18 04:52:44;;;;;;;63.57;21.50;;;;;;;9.68;98.52;96963.06;5038868;28;20216;-71
2021/10/18 04:55:11;;;;;;;64.73;21.23;;;;;;;9.89;97.95;96962.56;5039337;28;20225;-71
2021/10/18 04:57:49;;;;;;;62.17;22.53;;;;;;;10.00;98.60;96959.69;5037272;28;20566;-71
2021/10/18 05:00:15;;;;;;;71.90;22.40;;;;;;;9.70;98.76;96959.31;5038099;28;20582;-71
2021/10/18 05:02:42;;;;;;;71.67;22.57;;;;;;;9.73;98.86;96969.53;5038794;28;20204;-71
2021/10/18 05:05:10;;;;;;;77.83;23.80;;;;;;;10.02;98.97;96959.56;5038076;28;20225;-71
2021/10/18 05:07:37;;;;;;;71.67;23.57;;;;;;;9.77;98.69;96963.78;5037191;28;20209;-71
2021/10/18 05:10:04;;;;;;;74.77;22.23;;;;;;;9.74;98.74;96973.81;5038489;28;20198;-71
2021/10/18 05:12:30;;;;;;;84.37;22.37;;;;;;;9.56;99.37;96985.34;5038582;28;20212;-71
2021/10/18 05:14:57;;;;;;;80.63;22.53;;;;;;;9.52;99.15;96981.34;5037692;28;20221;-71
2021/10/18 05:17:23;;;;;;;78.97;23.17;;;;;;;9.63;99.16;96978.50;5037604;28;20201;-71
2021/10/18 05:19:50;;;;;;;75.47;22.50;;;;;;;9.61;100.00;96985.69;5035214;28;20201;-73
2021/10/18 05:22:18;;;;;;;76.83;20.90;;;;;;;9.80;99.61;96983.69;5037753;28;20296;-73
2021/10/18 05:24:45;;;;;;;66.73;21.80;;;;;;;9.61;99.18;96977.81;5038165;28;20446;-73
2021/10/18 05:27:11;;;;;;;79.00;21.97;;;;;;;9.50;99.26;96980.69;5037418;28;20819;-73
2021/10/18 05:29:38;;;;;;;65.20;21.17;;;;;;;9.70;98.67;96978.56;5037358;28;20205;-73
2021/10/18 05:32:05;;;;;;;79.03;24.40;;;;;;;9.84;98.75;96969.28;5037638;28;20212;-71
2021/10/18 05:34:32;;;;;;;90.30;25.73;;;;;;;9.82;99.30;96965.97;5037491;28;20246;-71
2021/10/18 05:36:59;;;;;;;101.97;27.20;;;;;;;9.80;99.30;96962.66;5037023;28;20201;-71
2021/10/18 05:39:26;;;;;;;97.20;25.97;;;;;;;10.03;99.32;96977.81;5037578;28;20616;-71
2021/10/18 05:41:53;;;;;;;88.53;23.97;;;;;;;9.80;98.59;96988.97;5037298;28;20208;-71
2021/10/18 05:44:21;;;;;;;91.10;25.73;;;;;;;9.89;98.87;96986.25;5037155;28;20599;-71
2021/10/18 05:46:47;;;;;;;96.60;25.40;;;;;;;9.87;98.13;96996.09;5037063;28;20715;-71
2021/10/18 05:49:14;;;;;;;106.50;27.77;;;;;;;9.82;98.44;96994.91;5037654;28;20209;-71
2021/10/18 05:51:40;;;;;;;102.80;29.10;;;;;;;9.75;98.51;96984.19;5037227;28;20213;-71
2021/10/18 05:54:07;;;;;;;87.37;25.63;;;;;;;9.61;98.98;96988.34;5037456;28;20209;-71
2021/10/18 05:56:35;;;;;;;91.20;25.13;;;;;;;9.65;99.75;97000.19;5036475;28;20217;-71
2021/10/18 05:59:02;;;;;;;102.30;26.20;;;;;;;9.58;98.34;97004.44;5036704;28;20202;-71
2021/10/18 06:01:29;;;;;;;94.67;24.13;;;;;;;9.61;97.84;97004.13;5036866;28;20201;-72
2021/10/18 06:03:55;;;;;;;85.53;24.37;;;;;;;9.63;97.38;96999.53;5039818;28;20310;-71
2021/10/18 06:06:22;;;;;;;81.60;22.90;;;;;;;9.45;98.54;97002.19;5037450;28;20224;-71
2021/10/18 06:08:49;;;;;;;87.60;21.00;;;;;;;9.50;97.61;97009.66;5037622;28;20197;-71
2021/10/18 06:11:16;;;;;;;86.80;22.87;;;;;;;9.50;98.33;97013.09;5038053;28;20216;-71
2021/10/18 06:13:44;;;;;;;81.00;21.93;;;;;;;9.54;99.42;97014.44;5038288;28;20194;-71
2021/10/18 06:16:10;;;;;;;81.47;21.23;;;;;;;9.43;98.58;97021.72;5036709;28;20865;-70
2021/10/18 06:18:37;;;;;;;75.87;20.17;;;;;;;9.49;99.03;97021.94;5034980;28;20294;-71
2021/10/18 06:21:03;;;;;;;75.63;20.33;;;;;;;9.51;98.57;97021.78;5037762;28;20205;-71
2021/10/18 06:23:30;;;;;;;65.60;19.30;;;;;;;9.45;98.63;97027.69;5037142;28;20564;-71
2021/10/18 06:25:56;;;;;;;73.57;19.57;;;;;;;9.55;99.19;97042.41;5037310;28;20225;-71
2021/10/18 06:28:23;;;;;;;78.00;20.90;;;;;;;9.71;98.76;97043.38;5037940;28;20208;-70
2021/10/18 06:30:51;;;;;;;73.57;20.43;;;;;;;10.07;98.28;97044.16;5037525;28;20208;-71
2021/10/18 06:33:19;;;;;;;74.07;21.80;;;;;;;9.94;97.33;97044.53;5037608;28;20201;-70
2021/10/18 06:35:46;;;;;;;79.27;21.93;;;;;;;9.99;97.09;97041.47;5036987;28;20233;-71
2021/10/18 06:38:14;;;;;;;69.30;20.60;;;;;;;10.15;97.76;97049.50;5037204;28;20205;-71
2021/10/18 06:40:42;;;;;;;67.87;19.33;;;;;;;10.01;97.66;97050.03;5037178;28;20208;-71
2021/10/18 06:43:08;;;;;;;68.73;19.97;;;;;;;9.99;97.10;97046.72;5037610;28;20209;-71
2021/10/18 06:45:35;;;;;;;69.90;19.47;;;;;;;10.09;97.00;97048.28;5036246;28;20716;-71
2021/10/18 06:48:03;;;;;;;72.03;19.20;;;;;;;10.24;97.60;97045.94;5036627;28;20197;-71
2021/10/18 06:50:32;;;;;;;66.23;18.97;;;;;;;10.04;97.05;97050.56;5035527;28;20571;-71
2021/10/18 06:52:59;;;;;;;64.10;19.53;;;;;;;10.14;96.25;97046.00;5035977;28;20201;-71
2021/10/18 06:55:27;;;;;;;65.27;19.90;;;;;;;10.17;95.99;97058.88;5035717;28;20223;-71
2021/10/18 06:57:54;;;;;;;64.13;18.90;;;;;;;10.16;96.12;97059.88;5035689;28;20276;-71
2021/10/18 07:00:20;;;;;;;68.33;19.60;;;;;;;10.02;96.44;97062.25;5035876;28;20197;-71
2021/10/18 07:02:47;;;;;;;58.73;18.13;;;;;;;10.12;96.27;97063.78;5036968;28;20201;-71
2021/10/18 07:05:14;;;;;;;60.23;18.27;;;;;;;10.38;96.11;97064.59;5036887;28;20231;-71
2021/10/18 07:07:41;;;;;;;55.37;17.83;;;;;;;10.20;95.31;97061.19;5035074;28;20683;-71
2021/10/18 07:10:09;;;;;;;62.10;18.57;;;;;;;10.50;95.02;97061.56;5037490;28;20197;-71
2021/10/18 07:12:36;;;;;;;48.97;14.63;;;;;;;10.94;97.08;97057.78;5037117;28;20205;-70
2021/10/18 07:15:04;;;;;;;63.33;19.07;;;;;;;11.27;92.84;97065.66;5040281;28;20236;-70
2021/10/18 07:17:31;;;;;;;52.17;18.90;;;;;;;10.91;92.39;97062.56;5039870;28;20204;-71
2021/10/18 07:19:58;;;;;;;54.93;18.83;;;;;;;10.83;93.12;97065.97;5037674;28;20212;-71
2021/10/18 07:22:30;;;;;;;54.87;18.93;;;;;;;10.67;93.76;97086.19;5040565;28;20197;-71
2021/10/18 07:24:58;;;;;;;53.03;17.53;;;;;;;10.17;94.68;97087.00;5039894;28;20225;-70
2021/10/18 07:27:25;;;;;;;52.40;17.07;;;;;;;10.19;94.82;97083.25;5040315;28;20216;-70
2021/10/18 07:29:51;;;;;;;56.60;18.00;;;;;;;10.14;95.79;97101.31;5040660;28;21266;-70
2021/10/18 07:32:18;;;;;;;59.63;18.93;;;;;;;10.27;95.02;97095.66;5040684;28;20205;-71
2021/10/18 07:34:45;;;;;;;55.37;18.20;;;;;;;10.07;96.09;97102.06;5040062;28;20240;-71
2021/10/18 07:37:12;;;;;;;60.93;18.97;;;;;;;10.15;95.91;97105.59;5040436;28;20566;-70
2021/10/18 07:39:39;;;;;;;57.07;18.53;;;;;;;10.56;95.19;97100.44;5040748;28;20998;-71
2021/10/18 07:42:13;;;;;;;52.17;18.30;;;;;;;10.52;94.78;97108.84;5040190;28;20791;-71
2021/10/18 07:44:40;;;;;;;61.97;20.00;;;;;;;10.29;95.24;97112.97;5040081;28;20315;-71
2021/10/18 07:47:06;;;;;;;58.70;19.57;;;;;;;10.35;95.01;97104.44;5039711;28;20205;-71
2021/10/18 07:49:36;;;;;;;62.23;20.90;;;;;;;10.46;95.22;97112.91;5040775;28;20224;-70
2021/10/18 07:52:03;;;;;;;59.33;19.93;;;;;;;10.57;94.63;97120.56;5041123;28;20202;-70
2021/10/18 07:54:30;;;;;;;59.67;19.07;;;;;;;10.72;94.40;97118.19;5040365;28;20201;-70
2021/10/18 07:56:58;;;;;;;55.63;18.73;;;;;;;10.90;94.01;97124.22;5038995;28;20720;-71
2021/10/18 07:59:25;;;;;;;59.00;18.83;;;;;;;10.78;93.26;97114.91;5039848;28;20228;-71
2021/10/18 08:01:51;;;;;;;56.43;19.73;;;;;;;10.41;94.26;97122.25;5037682;28;20201;-70
2021/10/18 08:04:18;;;;;;;54.90;18.90;;;;;;;10.51;93.93;97122.97;5038490;28;20229;-70
2021/10/18 08:06:44;;;;;;;61.87;20.17;;;;;;;10.22;94.84;97127.75;5037490;28;20224;-70
2021/10/18 08:09:12;;;;;;;55.67;18.67;;;;;;;10.26;95.63;97134.34;5039716;28;20620;-70
2021/10/18 08:11:38;;;;;;;56.70;19.43;;;;;;;10.44;94.69;97128.03;5038871;28;20201;-70
2021/10/18 08:14:06;;;;;;;62.30;19.00;;;;;;;10.62;94.52;97128.00;5038659;28;20201;-70
2021/10/18 08:16:33;;;;;;;58.27;18.80;;;;;;;10.39;94.87;97140.84;5037974;28;20221;-70
2021/10/18 08:19:00;;;;;;;62.83;19.73;;;;;;;10.49;94.34;97138.13;5036651;28;20216;-70
2021/10/18 08:21:26;;;;;;;62.50;21.87;;;;;;;10.39;95.24;97142.69;5038801;28;20209;-70
2021/10/18 08:23:53;;;;;;;53.57;18.60;;;;;;;10.50;94.56;97126.59;5039057;28;20211;-70
2021/10/18 08:26:19;;;;;;;61.23;19.50;;;;;;;10.22;95.58;97142.69;5037269;28;20221;-70
2021/10/18 08:28:46;;;;;;;61.37;18.57;;;;;;;10.16;95.77;97143.31;5038760;28;20202;-70
2021/10/18 08:31:15;;;;;;;59.23;18.00;;;;;;;10.35;96.42;97136.06;5038863;28;20202;-70
2021/10/18 08:33:42;;;;;;;56.60;18.93;;;;;;;10.26;96.38;97144.03;5038802;28;20198;-70
2021/10/18 08:36:09;;;;;;;65.50;20.57;;;;;;;10.35;95.14;97143.97;5037638;28;20237;-70
2021/10/18 08:38:52;;;;;;;62.40;19.47;;;;;;;10.54;95.64;97133.22;5038854;28;20205;-70
2021/10/18 08:41:26;;;;;;;56.30;17.97;;;;;;;10.73;95.03;97135.63;5038639;28;20216;-70
2021/10/18 08:46:41;;;;;;;54.60;18.40;;;;;;;10.97;93.93;97132.16;5033623;28;20247;-70
2021/10/18 08:49:08;;;;;;;63.27;19.70;;;;;;;10.76;93.52;97140.63;5038540;28;20227;-70
2021/10/18 08:51:35;;;;;;;62.57;20.40;;;;;;;10.95;93.11;97130.66;5038069;28;20911;-70
2021/10/18 08:54:02;;;;;;;66.13;20.83;;;;;;;10.97;93.46;97136.59;5038115;28;20205;-70
2021/10/18 08:56:28;;;;;;;62.23;20.73;;;;;;;11.02;94.02;97140.41;5037192;28;20225;-70
2021/10/18 08:58:55;;;;;;;65.83;22.37;;;;;;;11.03;93.90;97128.88;5038250;28;20661;-70
2021/10/18 09:01:21;;;;;;;60.67;21.20;;;;;;;10.99;94.25;97126.72;5037881;28;20708;-70
2021/10/18 09:03:49;;;;;;;59.30;20.57;;;;;;;11.49;92.49;97133.66;5037871;28;20572;-70
2021/10/18 09:06:17;;;;;;;55.93;19.40;;;;;;;11.41;92.47;97124.91;5036334;28;20252;-71
2021/10/18 09:08:47;;;;;;;60.53;19.83;;;;;;;11.46;91.63;97133.97;5038247;28;20198;-70
2021/10/18 09:11:15;;;;;;;54.97;19.17;;;;;;;11.45;91.41;97137.59;5037867;28;20204;-70
2021/10/18 09:13:57;;;;;;;50.13;18.40;;;;;;;11.67;91.12;97139.66;5038482;28;20208;-71
2021/10/18 09:16:25;;;;;;;52.13;17.40;;;;;;;11.44;92.02;97132.50;5036908;28;20752;-71
2021/10/18 09:19:03;;;;;;;49.10;17.43;;;;;;;11.70;91.94;97126.97;5035159;28;20217;-70
2021/10/18 09:21:31;;;;;;;52.47;19.03;;;;;;;11.67;91.00;97126.47;5037958;28;20205;-70
2021/10/18 09:24:00;;;;;;;51.67;17.60;;;;;;;11.50;90.79;97131.88;5038527;28;20201;-70
2021/10/18 09:26:28;;;;;;;52.40;18.77;;;;;;;11.29;91.49;97129.66;5036440;28;20231;-70
2021/10/18 09:28:56;;;;;;;48.70;18.33;;;;;;;11.35;92.47;97126.34;5037111;28;20212;-70
2021/10/18 09:31:25;;;;;;;59.30;19.00;;;;;;;11.30;93.17;97133.09;5037811;28;20209;-71
2021/10/18 09:33:56;;;;;;;51.80;19.17;;;;;;;11.37;92.55;97129.66;5036906;28;20208;-71
2021/10/18 09:36:29;;;;;;;52.07;19.37;;;;;;;11.50;92.41;97124.78;5034749;28;20256;-71
2021/10/18 09:39:11;;;;;;;53.93;18.57;;;;;;;11.58;92.90;97132.72;5037497;28;20201;-71
2021/10/18 09:41:43;;;;;;;51.50;19.13;;;;;;;11.55;92.96;97127.78;5037124;28;20213;-70
2021/10/18 09:44:18;;;;;;;52.97;20.50;;;;;;;11.10;93.45;97124.63;5037208;28;20939;-71
2021/10/18 09:47:03;;;;;;;55.17;20.37;;;;;;;11.57;92.38;97121.34;5036317;28;20325;-70
2021/10/18 10:53:17;;;;;;;40.10;17.67;;;;;;;11.73;89.86;97124.00;5036758;28;20250;-72
2021/10/18 10:55:43;;;;;;;38.77;16.70;;;;;;;11.84;89.48;97122.88;5035016;28;20221;-72
2021/10/18 10:58:34;;;;;;;41.73;17.40;;;;;;;12.41;88.41;97123.56;5036572;28;21037;-73
2021/10/18 11:01:01;;;;;;;42.90;18.07;;;;;;;12.05;88.94;97125.88;5036235;28;20197;-71
2021/10/18 11:03:39;;;;;;;38.60;17.43;;;;;;;12.08;89.89;97130.81;5036360;28;20208;-71
2021/10/18 11:06:09;;;;;;;40.30;17.20;;;;;;;11.91;90.25;97124.69;5035610;28;20363;-70
2021/10/18 11:08:37;;;;;;;42.13;17.20;;;;;;;12.01;88.77;97124.53;5036013;28;20206;-71
2021/10/18 11:11:08;;;;;;;42.30;19.80;;;;;;;12.37;87.32;97122.22;5036072;28;20555;-70
2021/10/18 11:13:42;;;;;;;36.87;16.73;;;;;;;12.40;87.74;97113.16;5036383;28;20786;-70
2021/10/18 11:16:09;;;;;;;38.20;17.67;;;;;;;12.09;87.12;97108.69;5035968;28;20227;-71
2021/10/18 11:18:35;;;;;;;40.97;17.10;;;;;;;12.07;86.43;97118.63;5035999;28;20205;-71
2021/10/18 11:21:12;;;;;;;36.17;16.63;;;;;;;12.30;86.61;97108.00;5036161;28;20208;-71
2021/10/18 11:23:57;;;;;;;39.10;18.17;;;;;;;12.37;86.72;97111.66;5033676;28;20884;-71
2021/10/18 11:26:24;;;;;;;43.50;18.73;;;;;;;12.07;88.28;97108.06;5034793;28;20737;-71
2021/10/18 11:28:57;;;;;;;37.13;17.63;;;;;;;12.22;87.92;97115.97;5036488;28;20204;-70
2021/10/18 11:31:29;;;;;;;38.47;17.30;;;;;;;12.20;88.95;97106.53;5036047;28;20224;-71
2021/10/18 11:34:08;;;;;;;39.27;17.13;;;;;;;12.60;87.14;97099.41;5035855;28;20208;-71
2021/10/18 11:36:38;;;;;;;40.63;16.47;;;;;;;12.06;88.93;97095.81;5035520;28;20232;-71
2021/10/18 11:39:17;;;;;;;34.90;15.63;;;;;;;12.21;88.03;97087.88;5035776;28;20213;-71
2021/10/18 11:42:07;;;;;;;34.23;15.70;;;;;;;12.54;87.33;97080.75;5035207;28;20286;-70
2021/10/18 11:44:53;;;;;;;38.70;15.97;;;;;;;12.54;87.79;97099.25;5036249;28;20201;-70
2021/10/18 11:47:28;;;;;;;39.10;16.80;;;;;;;12.57;87.37;97097.06;5035698;28;20670;-71
2021/10/18 11:50:15;;;;;;;35.10;15.87;;;;;;;12.59;87.03;97095.09;5035934;28;20786;-71
2021/10/18 11:52:44;;;;;;;35.27;15.77;;;;;;;11.93;88.71;97100.78;5035926;28;20204;-70
2021/10/18 11:55:12;;;;;;;36.93;16.00;;;;;;;11.91;88.92;97093.00;5036041;28;20228;-70
2021/10/18 11:57:42;;;;;;;36.87;16.17;;;;;;;12.24;88.62;97090.22;5034219;28;20591;-71
2021/10/18 12:00:13;;;;;;;37.40;15.73;;;;;;;12.39;88.29;97080.59;5036299;28;20757;-71
2021/10/18 12:02:45;;;;;;;34.47;15.40;;;;;;;12.52;87.19;97086.19;5039148;28;20201;-70
2021/10/18 12:05:12;;;;;;;35.73;16.20;;;;;;;12.39;87.52;97088.50;5038657;28;20681;-70
2021/10/18 12:07:41;;;;;;;35.60;15.70;;;;;;;12.61;88.13;97090.44;5037844;28;20509;-70
2021/10/18 12:10:17;;;;;;;34.07;15.73;;;;;;;12.40;86.44;97095.47;5039109;28;20197;-70
2021/10/18 12:13:06;;;;;;;34.03;14.73;;;;;;;12.62;84.78;97094.75;5037966;28;20216;-72
2021/10/18 12:15:38;;;;;;;36.50;15.27;;;;;;;12.22;86.81;97102.75;5037736;28;20783;-72
2021/10/18 12:18:06;;;;;;;32.70;14.47;;;;;;;12.27;86.28;97092.50;5038363;28;20212;-72
2021/10/18 12:20:33;;;;;;;35.10;15.37;;;;;;;12.56;85.27;97092.78;5038567;28;20925;-70
2021/10/18 12:23:02;;;;;;;31.20;14.97;;;;;;;12.70;85.68;97092.09;5038319;28;20232;-71
2021/10/18 12:25:28;;;;;;;30.93;14.27;;;;;;;12.52;85.26;97093.28;5034667;28;20236;-71
2021/10/18 12:27:57;;;;;;;33.90;14.73;;;;;;;12.22;85.85;97091.38;5038861;28;20198;-70